sensor_id;sensor_type;location;lat;lon;timestamp;temperature;humidity
11423;DHT22;5768;51.476;7.210;2023-05-07T00:00:32;16.80;22.60
11423;DHT22;5768;51.476;7.210;2023-05-07T00:05:34;16.80;22.70
11423;DHT22;5768;51.476;7.210;2023-05-07T00:10:38;16.80;22.70
11423;DHT22;5768;51.476;7.210;2023-05-07T00:15:44;16.80;22.90
11423;DHT22;5768;51.476;7.210;2023-05-07T00:20:46;16.80;22.90
11423;DHT22;5768;51.476;7.210;2023-05-07T00:25:49;16.80;23.00
11423;DHT22;5768;51.476;7.210;2023-05-07T00:30:52;16.80;23.00
11423;DHT22;5768;51.476;7.210;2023-05-07T00:35:55;16.80;23.10
11423;DHT22;5768;51.476;7.210;2023-05-07T00:40:57;16.80;22.90
11423;DHT22;5768;51.476;7.210;2023-05-07T00:46:01;16.70;23.10
11423;DHT22;5768;51.476;7.210;2023-05-07T00:51:04;16.70;23.20
11423;DHT22;5768;51.476;7.210;2023-05-07T00:56:06;16.70;23.50
11423;DHT22;5768;51.476;7.210;2023-05-07T01:01:10;16.70;23.60
11423;DHT22;5768;51.476;7.210;2023-05-07T01:06:13;16.70;23.70
11423;DHT22;5768;51.476;7.210;2023-05-07T01:11:17;16.60;23.90
11423;DHT22;5768;51.476;7.210;2023-05-07T01:16:22;16.60;24.00
11423;DHT22;5768;51.476;7.210;2023-05-07T01:21:25;16.60;24.20
11423;DHT22;5768;51.476;7.210;2023-05-07T01:26:30;16.60;24.10
11423;DHT22;5768;51.476;7.210;2023-05-07T01:31:32;16.60;24.30
11423;DHT22;5768;51.476;7.210;2023-05-07T01:36:37;16.70;24.20
11423;DHT22;5768;51.476;7.210;2023-05-07T01:41:43;16.70;24.10
11423;DHT22;5768;51.476;7.210;2023-05-07T01:46:46;16.70;23.90
11423;DHT22;5768;51.476;7.210;2023-05-07T01:51:50;16.70;24.10
11423;DHT22;5768;51.476;7.210;2023-05-07T01:56:54;16.60;23.90
11423;DHT22;5768;51.476;7.210;2023-05-07T02:01:58;16.70;23.90
11423;DHT22;5768;51.476;7.210;2023-05-07T02:07:00;16.60;23.90
11423;DHT22;5768;51.476;7.210;2023-05-07T02:12:04;16.60;23.90
11423;DHT22;5768;51.476;7.210;2023-05-07T02:17:06;16.60;24.00
11423;DHT22;5768;51.476;7.210;2023-05-07T02:22:10;16.40;24.30
11423;DHT22;5768;51.476;7.210;2023-05-07T02:27:13;16.40;24.70
11423;DHT22;5768;51.476;7.210;2023-05-07T02:32:16;16.40;24.80
11423;DHT22;5768;51.476;7.210;2023-05-07T02:37:18;16.40;24.60
11423;DHT22;5768;51.476;7.210;2023-05-07T02:42:22;16.30;24.70
11423;DHT22;5768;51.476;7.210;2023-05-07T02:47:24;16.40;25.00
11423;DHT22;5768;51.476;7.210;2023-05-07T02:52:27;16.30;24.90
11423;DHT22;5768;51.476;7.210;2023-05-07T02:57:30;16.20;24.20
11423;DHT22;5768;51.476;7.210;2023-05-07T03:02:33;16.20;24.50
11423;DHT22;5768;51.476;7.210;2023-05-07T03:07:35;16.20;24.50
11423;DHT22;5768;51.476;7.210;2023-05-07T03:12:39;16.10;24.60
11423;DHT22;5768;51.476;7.210;2023-05-07T03:17:42;16.10;24.70
11423;DHT22;5768;51.476;7.210;2023-05-07T03:22:44;16.10;24.80
11423;DHT22;5768;51.476;7.210;2023-05-07T03:27:47;16.10;24.70
11423;DHT22;5768;51.476;7.210;2023-05-07T03:32:50;16.00;24.80
11423;DHT22;5768;51.476;7.210;2023-05-07T03:37:52;16.00;24.50
11423;DHT22;5768;51.476;7.210;2023-05-07T03:42:56;16.00;24.60
11423;DHT22;5768;51.476;7.210;2023-05-07T03:47:58;16.00;24.80
11423;DHT22;5768;51.476;7.210;2023-05-07T03:53:00;16.00;24.70
11423;DHT22;5768;51.476;7.210;2023-05-07T03:58:04;15.90;24.80
11423;DHT22;5768;51.476;7.210;2023-05-07T04:03:06;15.90;24.90
11423;DHT22;5768;51.476;7.210;2023-05-07T04:08:08;16.00;24.80
11423;DHT22;5768;51.476;7.210;2023-05-07T04:13:12;15.90;24.70
11423;DHT22;5768;51.476;7.210;2023-05-07T04:18:15;16.00;24.50
11423;DHT22;5768;51.476;7.210;2023-05-07T04:23:17;15.90;24.50
11423;DHT22;5768;51.476;7.210;2023-05-07T04:28:21;16.00;24.60
11423;DHT22;5768;51.476;7.210;2023-05-07T04:33:23;16.00;24.60
11423;DHT22;5768;51.476;7.210;2023-05-07T04:38:25;16.00;24.50
11423;DHT22;5768;51.476;7.210;2023-05-07T04:43:30;16.10;24.30
11423;DHT22;5768;51.476;7.210;2023-05-07T04:48:32;16.10;24.00
11423;DHT22;5768;51.476;7.210;2023-05-07T04:53:34;16.30;23.70
11423;DHT22;5768;51.476;7.210;2023-05-07T04:58:37;16.40;23.50
11423;DHT22;5768;51.476;7.210;2023-05-07T05:03:40;16.50;23.40
11423;DHT22;5768;51.476;7.210;2023-05-07T05:08:42;16.50;22.70
11423;DHT22;5768;51.476;7.210;2023-05-07T05:13:45;16.50;22.90
11423;DHT22;5768;51.476;7.210;2023-05-07T05:18:49;16.60;22.70
11423;DHT22;5768;51.476;7.210;2023-05-07T05:23:52;16.80;22.50
11423;DHT22;5768;51.476;7.210;2023-05-07T05:28:56;16.90;22.30
11423;DHT22;5768;51.476;7.210;2023-05-07T05:33:58;17.00;22.30
11423;DHT22;5768;51.476;7.210;2023-05-07T05:39:00;17.10;21.90
11423;DHT22;5768;51.476;7.210;2023-05-07T05:44:04;17.20;21.80
11423;DHT22;5768;51.476;7.210;2023-05-07T05:49:06;17.30;21.80
11423;DHT22;5768;51.476;7.210;2023-05-07T05:54:09;17.40;21.40
11423;DHT22;5768;51.476;7.210;2023-05-07T05:59:12;17.60;21.00
11423;DHT22;5768;51.476;7.210;2023-05-07T06:04:15;17.70;20.40
11423;DHT22;5768;51.476;7.210;2023-05-07T06:09:19;18.10;19.90
11423;DHT22;5768;51.476;7.210;2023-05-07T06:14:23;18.40;19.50
11423;DHT22;5768;51.476;7.210;2023-05-07T06:19:25;18.70;19.20
11423;DHT22;5768;51.476;7.210;2023-05-07T06:24:28;18.90;18.80
11423;DHT22;5768;51.476;7.210;2023-05-07T06:29:33;19.10;18.60
11423;DHT22;5768;51.476;7.210;2023-05-07T06:34:36;19.30;18.50
11423;DHT22;5768;51.476;7.210;2023-05-07T06:39:39;19.40;18.30
11423;DHT22;5768;51.476;7.210;2023-05-07T06:44:43;19.40;18.20
11423;DHT22;5768;51.476;7.210;2023-05-07T06:49:45;19.50;18.00
11423;DHT22;5768;51.476;7.210;2023-05-07T06:54:47;19.60;18.20
11423;DHT22;5768;51.476;7.210;2023-05-07T06:59:51;19.80;18.10
11423;DHT22;5768;51.476;7.210;2023-05-07T07:04:53;19.90;17.80
11423;DHT22;5768;51.476;7.210;2023-05-07T07:09:55;20.20;17.60
11423;DHT22;5768;51.476;7.210;2023-05-07T07:14:59;20.40;17.60
11423;DHT22;5768;51.476;7.210;2023-05-07T07:20:02;20.40;17.50
11423;DHT22;5768;51.476;7.210;2023-05-07T07:25:05;20.50;17.60
11423;DHT22;5768;51.476;7.210;2023-05-07T07:30:10;20.50;17.20
11423;DHT22;5768;51.476;7.210;2023-05-07T07:35:13;20.50;17.20
11423;DHT22;5768;51.476;7.210;2023-05-07T07:40:15;20.70;17.20
11423;DHT22;5768;51.476;7.210;2023-05-07T07:45:19;20.80;17.20
11423;DHT22;5768;51.476;7.210;2023-05-07T07:50:21;21.10;17.10
11423;DHT22;5768;51.476;7.210;2023-05-07T07:55:24;21.30;16.90
11423;DHT22;5768;51.476;7.210;2023-05-07T08:00:29;21.50;16.90
11423;DHT22;5768;51.476;7.210;2023-05-07T08:05:32;21.70;16.70
11423;DHT22;5768;51.476;7.210;2023-05-07T08:10:34;21.80;16.60
11423;DHT22;5768;51.476;7.210;2023-05-07T08:15:40;21.70;16.60
11423;DHT22;5768;51.476;7.210;2023-05-07T08:20:42;21.80;16.70
11423;DHT22;5768;51.476;7.210;2023-05-07T08:25:44;21.80;16.50
11423;DHT22;5768;51.476;7.210;2023-05-07T08:30:48;22.10;16.40
11423;DHT22;5768;51.476;7.210;2023-05-07T08:35:50;22.50;16.10
11423;DHT22;5768;51.476;7.210;2023-05-07T08:40:53;22.80;16.10
11423;DHT22;5768;51.476;7.210;2023-05-07T08:45:59;22.80;15.80
11423;DHT22;5768;51.476;7.210;2023-05-07T08:51:03;23.20;15.70
11423;DHT22;5768;51.476;7.210;2023-05-07T08:56:06;23.50;15.60
11423;DHT22;5768;51.476;7.210;2023-05-07T09:01:14;23.80;15.20
11423;DHT22;5768;51.476;7.210;2023-05-07T09:06:17;23.80;15.40
11423;DHT22;5768;51.476;7.210;2023-05-07T09:11:22;23.60;15.30
11423;DHT22;5768;51.476;7.210;2023-05-07T09:16:26;23.40;15.30
11423;DHT22;5768;51.476;7.210;2023-05-07T09:21:30;23.50;15.20
11423;DHT22;5768;51.476;7.210;2023-05-07T09:26:32;23.30;15.30
11423;DHT22;5768;51.476;7.210;2023-05-07T09:31:38;23.40;15.30
11423;DHT22;5768;51.476;7.210;2023-05-07T09:36:41;23.80;15.20
11423;DHT22;5768;51.476;7.210;2023-05-07T09:41:43;24.10;15.00
11423;DHT22;5768;51.476;7.210;2023-05-07T09:46:53;24.30;14.90
11423;DHT22;5768;51.476;7.210;2023-05-07T09:51:58;24.30;14.80
11423;DHT22;5768;51.476;7.210;2023-05-07T09:57:02;24.80;14.80
11423;DHT22;5768;51.476;7.210;2023-05-07T10:02:07;25.00;14.40
11423;DHT22;5768;51.476;7.210;2023-05-07T10:07:14;25.20;14.30
11423;DHT22;5768;51.476;7.210;2023-05-07T10:12:18;25.40;14.30
11423;DHT22;5768;51.476;7.210;2023-05-07T10:17:23;25.60;14.10
11423;DHT22;5768;51.476;7.210;2023-05-07T10:22:26;26.00;13.80
11423;DHT22;5768;51.476;7.210;2023-05-07T10:27:29;26.10;13.60
11423;DHT22;5768;51.476;7.210;2023-05-07T10:32:38;25.90;13.60
11423;DHT22;5768;51.476;7.210;2023-05-07T10:37:44;25.80;13.80
11423;DHT22;5768;51.476;7.210;2023-05-07T10:42:54;25.50;14.50
11423;DHT22;5768;51.476;7.210;2023-05-07T10:48:09;25.50;14.50
11423;DHT22;5768;51.476;7.210;2023-05-07T10:53:24;25.80;14.40
11423;DHT22;5768;51.476;7.210;2023-05-07T10:58:30;26.20;14.40
11423;DHT22;5768;51.476;7.210;2023-05-07T11:03:35;26.30;14.30
11423;DHT22;5768;51.476;7.210;2023-05-07T11:08:53;26.60;14.30
11423;DHT22;5768;51.476;7.210;2023-05-07T11:13:56;26.70;14.30
11423;DHT22;5768;51.476;7.210;2023-05-07T11:19:00;26.90;14.10
11423;DHT22;5768;51.476;7.210;2023-05-07T11:24:03;27.00;14.20
11423;DHT22;5768;51.476;7.210;2023-05-07T11:29:10;27.30;14.40
11423;DHT22;5768;51.476;7.210;2023-05-07T11:34:15;27.50;14.40
11423;DHT22;5768;51.476;7.210;2023-05-07T11:39:27;27.50;15.30
11423;DHT22;5768;51.476;7.210;2023-05-07T11:44:43;27.60;15.40
11423;DHT22;5768;51.476;7.210;2023-05-07T11:49:49;27.70;15.20
11423;DHT22;5768;51.476;7.210;2023-05-07T11:54:54;27.80;14.30
11423;DHT22;5768;51.476;7.210;2023-05-07T11:59:58;28.00;14.90
11423;DHT22;5768;51.476;7.210;2023-05-07T12:05:04;28.10;15.30
11423;DHT22;5768;51.476;7.210;2023-05-07T12:10:07;28.60;15.20
11423;DHT22;5768;51.476;7.210;2023-05-07T12:15:15;28.50;14.70
11423;DHT22;5768;51.476;7.210;2023-05-07T12:20:20;28.50;14.60
11423;DHT22;5768;51.476;7.210;2023-05-07T12:25:23;28.40;14.60
11423;DHT22;5768;51.476;7.210;2023-05-07T12:30:25;28.30;14.50
11423;DHT22;5768;51.476;7.210;2023-05-07T12:35:30;28.50;14.60
11423;DHT22;5768;51.476;7.210;2023-05-07T12:40:36;28.30;14.40
11423;DHT22;5768;51.476;7.210;2023-05-07T12:45:41;27.70;14.50
11423;DHT22;5768;51.476;7.210;2023-05-07T12:50:45;27.10;14.70
11423;DHT22;5768;51.476;7.210;2023-05-07T12:55:53;26.50;14.90
11423;DHT22;5768;51.476;7.210;2023-05-07T13:00:58;26.00;15.00
11423;DHT22;5768;51.476;7.210;2023-05-07T13:06:03;25.90;15.30
11423;DHT22;5768;51.476;7.210;2023-05-07T13:11:07;25.90;15.60
11423;DHT22;5768;51.476;7.210;2023-05-07T13:16:11;25.40;15.70
11423;DHT22;5768;51.476;7.210;2023-05-07T13:21:14;25.20;15.90
11423;DHT22;5768;51.476;7.210;2023-05-07T13:26:17;25.10;16.20
11423;DHT22;5768;51.476;7.210;2023-05-07T13:31:19;24.80;16.30
11423;DHT22;5768;51.476;7.210;2023-05-07T13:36:23;24.70;16.60
11423;DHT22;5768;51.476;7.210;2023-05-07T13:41:25;24.50;16.40
11423;DHT22;5768;51.476;7.210;2023-05-07T13:46:28;24.30;15.10
11423;DHT22;5768;51.476;7.210;2023-05-07T13:51:32;24.00;15.10
11423;DHT22;5768;51.476;7.210;2023-05-07T13:56:35;24.00;15.20
11423;DHT22;5768;51.476;7.210;2023-05-07T14:01:37;23.80;15.30
11423;DHT22;5768;51.476;7.210;2023-05-07T14:06:41;24.00;15.20
11423;DHT22;5768;51.476;7.210;2023-05-07T14:11:43;24.10;15.30
11423;DHT22;5768;51.476;7.210;2023-05-07T14:16:48;24.20;15.30
11423;DHT22;5768;51.476;7.210;2023-05-07T14:21:52;24.30;15.30
11423;DHT22;5768;51.476;7.210;2023-05-07T14:26:55;24.30;15.40
11423;DHT22;5768;51.476;7.210;2023-05-07T14:31:57;24.20;15.50
11423;DHT22;5768;51.476;7.210;2023-05-07T14:37:01;24.10;15.50
11423;DHT22;5768;51.476;7.210;2023-05-07T14:42:03;23.90;15.60
11423;DHT22;5768;51.476;7.210;2023-05-07T14:47:06;23.80;15.10
11423;DHT22;5768;51.476;7.210;2023-05-07T14:52:10;23.70;15.20
11423;DHT22;5768;51.476;7.210;2023-05-07T14:57:14;23.70;15.50
11423;DHT22;5768;51.476;7.210;2023-05-07T15:02:16;23.60;15.40
11423;DHT22;5768;51.476;7.210;2023-05-07T15:07:20;23.60;15.40
11423;DHT22;5768;51.476;7.210;2023-05-07T15:12:22;23.60;15.50
11423;DHT22;5768;51.476;7.210;2023-05-07T15:17:24;23.50;15.70
11423;DHT22;5768;51.476;7.210;2023-05-07T15:22:31;23.60;15.80
11423;DHT22;5768;51.476;7.210;2023-05-07T15:27:33;23.60;16.00
11423;DHT22;5768;51.476;7.210;2023-05-07T15:32:36;23.50;16.00
11423;DHT22;5768;51.476;7.210;2023-05-07T15:37:40;23.50;16.30
11423;DHT22;5768;51.476;7.210;2023-05-07T15:42:44;23.90;16.30
11423;DHT22;5768;51.476;7.210;2023-05-07T15:47:46;24.10;16.20
11423;DHT22;5768;51.476;7.210;2023-05-07T15:52:50;24.20;16.10
11423;DHT22;5768;51.476;7.210;2023-05-07T15:57:53;24.30;15.20
11423;DHT22;5768;51.476;7.210;2023-05-07T16:02:56;24.50;15.20
11423;DHT22;5768;51.476;7.210;2023-05-07T16:08:00;24.60;15.70
11423;DHT22;5768;51.476;7.210;2023-05-07T16:13:03;24.70;15.50
11423;DHT22;5768;51.476;7.210;2023-05-07T16:18:05;24.50;15.50
11423;DHT22;5768;51.476;7.210;2023-05-07T16:23:10;24.60;15.30
11423;DHT22;5768;51.476;7.210;2023-05-07T16:28:13;24.50;15.30
11423;DHT22;5768;51.476;7.210;2023-05-07T16:33:15;24.60;15.10
11423;DHT22;5768;51.476;7.210;2023-05-07T16:38:19;24.60;15.00
11423;DHT22;5768;51.476;7.210;2023-05-07T16:43:21;24.30;14.90
11423;DHT22;5768;51.476;7.210;2023-05-07T16:48:25;24.00;15.30
11423;DHT22;5768;51.476;7.210;2023-05-07T16:53:29;23.70;15.30
11423;DHT22;5768;51.476;7.210;2023-05-07T16:58:31;23.40;15.70
11423;DHT22;5768;51.476;7.210;2023-05-07T17:03:34;23.20;15.40
11423;DHT22;5768;51.476;7.210;2023-05-07T17:08:37;23.00;15.00
11423;DHT22;5768;51.476;7.210;2023-05-07T17:13:39;22.90;15.20
11423;DHT22;5768;51.476;7.210;2023-05-07T17:18:42;22.80;15.40
11423;DHT22;5768;51.476;7.210;2023-05-07T17:23:45;22.70;15.50
11423;DHT22;5768;51.476;7.210;2023-05-07T17:28:47;22.50;15.50
11423;DHT22;5768;51.476;7.210;2023-05-07T17:33:53;22.30;15.70
11423;DHT22;5768;51.476;7.210;2023-05-07T17:38:57;22.20;16.00
11423;DHT22;5768;51.476;7.210;2023-05-07T17:43:59;22.00;16.30
11423;DHT22;5768;51.476;7.210;2023-05-07T17:49:02;21.90;16.40
11423;DHT22;5768;51.476;7.210;2023-05-07T17:54:05;21.70;16.60
11423;DHT22;5768;51.476;7.210;2023-05-07T17:59:08;21.70;16.60
11423;DHT22;5768;51.476;7.210;2023-05-07T18:04:11;21.50;16.60
11423;DHT22;5768;51.476;7.210;2023-05-07T18:09:14;21.50;16.80
11423;DHT22;5768;51.476;7.210;2023-05-07T18:14:16;21.40;16.80
11423;DHT22;5768;51.476;7.210;2023-05-07T18:19:23;21.30;17.00
11423;DHT22;5768;51.476;7.210;2023-05-07T18:24:28;21.10;17.30
11423;DHT22;5768;51.476;7.210;2023-05-07T18:29:30;21.00;17.30
11423;DHT22;5768;51.476;7.210;2023-05-07T18:34:33;21.00;17.30
11423;DHT22;5768;51.476;7.210;2023-05-07T18:39:36;20.90;17.40
11423;DHT22;5768;51.476;7.210;2023-05-07T18:44:39;20.80;17.80
11423;DHT22;5768;51.476;7.210;2023-05-07T18:49:41;20.70;17.60
11423;DHT22;5768;51.476;7.210;2023-05-07T18:54:45;20.50;17.50
11423;DHT22;5768;51.476;7.210;2023-05-07T18:59:47;20.50;17.50
11423;DHT22;5768;51.476;7.210;2023-05-07T19:04:49;20.40;17.70
11423;DHT22;5768;51.476;7.210;2023-05-07T19:09:53;20.30;17.80
11423;DHT22;5768;51.476;7.210;2023-05-07T19:14:55;20.20;17.50
11423;DHT22;5768;51.476;7.210;2023-05-07T19:19:57;20.10;17.70
11423;DHT22;5768;51.476;7.210;2023-05-07T19:25:01;20.00;17.90
11423;DHT22;5768;51.476;7.210;2023-05-07T19:30:04;19.90;17.90
11423;DHT22;5768;51.476;7.210;2023-05-07T19:35:09;19.80;18.10
11423;DHT22;5768;51.476;7.210;2023-05-07T19:40:13;19.70;18.30
11423;DHT22;5768;51.476;7.210;2023-05-07T19:45:16;19.60;18.50
11423;DHT22;5768;51.476;7.210;2023-05-07T19:50:18;19.60;18.50
11423;DHT22;5768;51.476;7.210;2023-05-07T19:55:23;19.50;18.50
11423;DHT22;5768;51.476;7.210;2023-05-07T20:00:25;19.50;18.60
11423;DHT22;5768;51.476;7.210;2023-05-07T20:05:31;19.40;18.60
11423;DHT22;5768;51.476;7.210;2023-05-07T20:10:35;19.30;18.80
11423;DHT22;5768;51.476;7.210;2023-05-07T20:15:37;19.30;18.40
11423;DHT22;5768;51.476;7.210;2023-05-07T20:20:40;19.30;18.20
11423;DHT22;5768;51.476;7.210;2023-05-07T20:25:45;19.10;18.20
11423;DHT22;5768;51.476;7.210;2023-05-07T20:30:49;19.10;18.10
11423;DHT22;5768;51.476;7.210;2023-05-07T20:35:52;19.00;18.10
11423;DHT22;5768;51.476;7.210;2023-05-07T20:40:56;19.00;18.10
11423;DHT22;5768;51.476;7.210;2023-05-07T20:45:58;18.90;18.10
11423;DHT22;5768;51.476;7.210;2023-05-07T20:51:02;18.90;18.10
11423;DHT22;5768;51.476;7.210;2023-05-07T20:56:06;18.90;18.10
11423;DHT22;5768;51.476;7.210;2023-05-07T21:01:08;18.80;18.10
11423;DHT22;5768;51.476;7.210;2023-05-07T21:06:10;18.80;18.10
11423;DHT22;5768;51.476;7.210;2023-05-07T21:11:14;18.80;18.10
11423;DHT22;5768;51.476;7.210;2023-05-07T21:16:16;18.70;18.20
11423;DHT22;5768;51.476;7.210;2023-05-07T21:21:18;18.70;18.00
11423;DHT22;5768;51.476;7.210;2023-05-07T21:26:22;18.70;17.90
11423;DHT22;5768;51.476;7.210;2023-05-07T21:31:25;18.50;17.70
11423;DHT22;5768;51.476;7.210;2023-05-07T21:36:28;18.50;17.70
11423;DHT22;5768;51.476;7.210;2023-05-07T21:41:32;18.50;17.60
11423;DHT22;5768;51.476;7.210;2023-05-07T21:46:34;18.40;17.60
11423;DHT22;5768;51.476;7.210;2023-05-07T21:51:36;18.40;17.60
11423;DHT22;5768;51.476;7.210;2023-05-07T21:56:40;18.40;17.70
11423;DHT22;5768;51.476;7.210;2023-05-07T22:01:42;18.20;17.70
11423;DHT22;5768;51.476;7.210;2023-05-07T22:06:45;18.20;17.70
11423;DHT22;5768;51.476;7.210;2023-05-07T22:11:49;18.10;17.70
11423;DHT22;5768;51.476;7.210;2023-05-07T22:16:51;18.00;17.80
11423;DHT22;5768;51.476;7.210;2023-05-07T22:21:53;18.00;17.60
11423;DHT22;5768;51.476;7.210;2023-05-07T22:26:57;17.90;17.70
11423;DHT22;5768;51.476;7.210;2023-05-07T22:31:59;17.80;17.70
11423;DHT22;5768;51.476;7.210;2023-05-07T22:37:02;17.80;17.70
11423;DHT22;5768;51.476;7.210;2023-05-07T22:42:05;17.70;17.70
11423;DHT22;5768;51.476;7.210;2023-05-07T22:47:07;17.70;17.80
11423;DHT22;5768;51.476;7.210;2023-05-07T22:52:10;17.70;17.70
11423;DHT22;5768;51.476;7.210;2023-05-07T22:57:13;17.60;17.80
11423;DHT22;5768;51.476;7.210;2023-05-07T23:02:16;17.60;17.80
11423;DHT22;5768;51.476;7.210;2023-05-07T23:07:18;17.60;17.90
11423;DHT22;5768;51.476;7.210;2023-05-07T23:12:21;17.50;17.90
11423;DHT22;5768;51.476;7.210;2023-05-07T23:17:23;17.50;18.00
11423;DHT22;5768;51.476;7.210;2023-05-07T23:22:26;17.40;18.00
11423;DHT22;5768;51.476;7.210;2023-05-07T23:27:29;17.40;18.00
11423;DHT22;5768;51.476;7.210;2023-05-07T23:32:32;17.40;18.00
11423;DHT22;5768;51.476;7.210;2023-05-07T23:37:34;17.20;18.10
11423;DHT22;5768;51.476;7.210;2023-05-07T23:42:38;17.20;18.10
11423;DHT22;5768;51.476;7.210;2023-05-07T23:47:40;17.20;18.30
11423;DHT22;5768;51.476;7.210;2023-05-07T23:52:42;17.20;18.20
11423;DHT22;5768;51.476;7.210;2023-05-07T23:57:46;17.20;18.30
